Aireys Inlet, Australia
Current Conditions -  °F | °C
As of 12:00 AM on Sunday 26 Oct 2014 (Local Time) from YMAV Reporting Station
Overcast Overcast  
Wind Chill: 57°   Ceiling: 2000
Heat Index: 57°   Visibility: 6mi
Dew Point: 50°   Wind: 6mph
Humidity: 77%   Direction: 150°SSE
Pressure: 29.97"   Gusts: NA
Location:  38.46°S, 144.11°E
Report Text: YMAV 251300Z AUTO 15005KT 9999 // OVC020 14/10 Q1015
Loading
Personal Weather Stations






























Interactive Weather Map
Tropical Storm Tracking
New forecast layout! Learn more

10-Day Weather Forecast

Advertisements
Track Severe Weather on mobile